sensor_id;sensor_type;location;lat;lon;timestamp;temperature;humidity
56137;DHT22;42008;52.934;5.884;2023-05-07T00:01:42;15.50;99.90
56137;DHT22;42008;52.934;5.884;2023-05-07T00:04:08;15.60;99.90
56137;DHT22;42008;52.934;5.884;2023-05-07T00:06:33;14.00;99.90
56137;DHT22;42008;52.934;5.884;2023-05-07T00:08:59;15.10;99.90
56137;DHT22;42008;52.934;5.884;2023-05-07T00:11:26;15.00;99.90
56137;DHT22;42008;52.934;5.884;2023-05-07T00:13:52;15.00;99.90
56137;DHT22;42008;52.934;5.884;2023-05-07T00:16:18;15.10;99.90
56137;DHT22;42008;52.934;5.884;2023-05-07T00:18:43;14.90;1.00
56137;DHT22;42008;52.934;5.884;2023-05-07T00:21:09;14.00;1.00
56137;DHT22;42008;52.934;5.884;2023-05-07T00:23:34;15.30;46.80
56137;DHT22;42008;52.934;5.884;2023-05-07T00:26:00;15.40;99.90
56137;DHT22;42008;52.934;5.884;2023-05-07T00:28:25;15.20;99.90
56137;DHT22;42008;52.934;5.884;2023-05-07T00:30:51;15.60;99.90
56137;DHT22;42008;52.934;5.884;2023-05-07T00:33:17;13.90;99.90
56137;DHT22;42008;52.934;5.884;2023-05-07T00:35:43;15.20;99.90
56137;DHT22;42008;52.934;5.884;2023-05-07T00:38:08;15.50;1.00
56137;DHT22;42008;52.934;5.884;2023-05-07T00:40:34;15.00;1.00
56137;DHT22;42008;52.934;5.884;2023-05-07T00:43:00;13.90;99.90
56137;DHT22;42008;52.934;5.884;2023-05-07T00:45:27;15.00;99.90
56137;DHT22;42008;52.934;5.884;2023-05-07T00:47:57;15.50;99.90
56137;DHT22;42008;52.934;5.884;2023-05-07T00:50:23;15.10;99.90
56137;DHT22;42008;52.934;5.884;2023-05-07T00:52:49;14.90;99.90
56137;DHT22;42008;52.934;5.884;2023-05-07T00:55:15;15.60;99.90
56137;DHT22;42008;52.934;5.884;2023-05-07T00:57:41;15.10;1.00
56137;DHT22;42008;52.934;5.884;2023-05-07T01:00:08;15.40;1.00
56137;DHT22;42008;52.934;5.884;2023-05-07T01:02:35;15.00;1.00
56137;DHT22;42008;52.934;5.884;2023-05-07T01:05:02;15.20;2.40
56137;DHT22;42008;52.934;5.884;2023-05-07T01:07:29;15.10;68.20
56137;DHT22;42008;52.934;5.884;2023-05-07T01:09:56;13.80;99.90
56137;DHT22;42008;52.934;5.884;2023-05-07T01:12:22;15.30;99.90
56137;DHT22;42008;52.934;5.884;2023-05-07T01:14:48;14.90;99.90
56137;DHT22;42008;52.934;5.884;2023-05-07T01:17:15;14.80;99.90
56137;DHT22;42008;52.934;5.884;2023-05-07T01:19:41;14.80;99.90
56137;DHT22;42008;52.934;5.884;2023-05-07T01:22:09;14.60;99.90
56137;DHT22;42008;52.934;5.884;2023-05-07T01:24:37;14.90;99.90
56137;DHT22;42008;52.934;5.884;2023-05-07T01:27:03;15.20;99.90
56137;DHT22;42008;52.934;5.884;2023-05-07T01:29:29;14.60;99.90
56137;DHT22;42008;52.934;5.884;2023-05-07T01:31:57;14.40;99.90
56137;DHT22;42008;52.934;5.884;2023-05-07T01:34:25;15.50;99.90
56137;DHT22;42008;52.934;5.884;2023-05-07T01:36:55;15.20;99.90
56137;DHT22;42008;52.934;5.884;2023-05-07T01:39:27;14.40;99.90
56137;DHT22;42008;52.934;5.884;2023-05-07T01:41:55;15.20;1.00
56137;DHT22;42008;52.934;5.884;2023-05-07T01:44:22;15.00;1.00
56137;DHT22;42008;52.934;5.884;2023-05-07T01:46:48;15.10;99.90
56137;DHT22;42008;52.934;5.884;2023-05-07T01:49:14;14.80;99.90
56137;DHT22;42008;52.934;5.884;2023-05-07T01:51:41;15.30;99.90
56137;DHT22;42008;52.934;5.884;2023-05-07T01:54:07;13.70;99.90
56137;DHT22;42008;52.934;5.884;2023-05-07T01:56:33;14.90;99.90
56137;DHT22;42008;52.934;5.884;2023-05-07T01:58:59;14.80;99.90
56137;DHT22;42008;52.934;5.884;2023-05-07T02:01:25;15.10;99.90
56137;DHT22;42008;52.934;5.884;2023-05-07T02:03:51;13.90;99.90
56137;DHT22;42008;52.934;5.884;2023-05-07T02:06:17;14.70;99.90
56137;DHT22;42008;52.934;5.884;2023-05-07T02:08:42;13.60;99.90
56137;DHT22;42008;52.934;5.884;2023-05-07T02:11:08;13.60;99.90
56137;DHT22;42008;52.934;5.884;2023-05-07T02:13:34;13.70;99.90
56137;DHT22;42008;52.934;5.884;2023-05-07T02:16:00;15.00;99.90
56137;DHT22;42008;52.934;5.884;2023-05-07T02:18:25;14.70;99.90
56137;DHT22;42008;52.934;5.884;2023-05-07T02:20:51;13.90;99.90
56137;DHT22;42008;52.934;5.884;2023-05-07T02:23:17;15.00;99.90
56137;DHT22;42008;52.934;5.884;2023-05-07T02:25:42;14.80;99.90
56137;DHT22;42008;52.934;5.884;2023-05-07T02:28:08;13.70;99.90
56137;DHT22;42008;52.934;5.884;2023-05-07T02:30:33;14.60;99.90
56137;DHT22;42008;52.934;5.884;2023-05-07T02:32:59;13.60;99.90
56137;DHT22;42008;52.934;5.884;2023-05-07T02:35:25;14.90;99.90
56137;DHT22;42008;52.934;5.884;2023-05-07T02:37:51;15.10;99.90
56137;DHT22;42008;52.934;5.884;2023-05-07T02:40:17;14.80;99.90
56137;DHT22;42008;52.934;5.884;2023-05-07T02:42:42;14.40;99.90
56137;DHT22;42008;52.934;5.884;2023-05-07T02:45:08;14.80;99.90
56137;DHT22;42008;52.934;5.884;2023-05-07T02:47:34;14.10;99.90
56137;DHT22;42008;52.934;5.884;2023-05-07T02:50:00;15.00;99.90
56137;DHT22;42008;52.934;5.884;2023-05-07T02:52:25;14.90;99.90
56137;DHT22;42008;52.934;5.884;2023-05-07T02:54:51;14.30;99.90
56137;DHT22;42008;52.934;5.884;2023-05-07T02:57:16;13.70;99.90
56137;DHT22;42008;52.934;5.884;2023-05-07T02:59:42;14.80;99.90
56137;DHT22;42008;52.934;5.884;2023-05-07T03:02:08;13.70;99.90
56137;DHT22;42008;52.934;5.884;2023-05-07T03:04:34;13.60;99.90
56137;DHT22;42008;52.934;5.884;2023-05-07T03:06:59;13.90;99.90
56137;DHT22;42008;52.934;5.884;2023-05-07T03:09:25;14.90;99.90
56137;DHT22;42008;52.934;5.884;2023-05-07T03:11:51;14.90;99.90
56137;DHT22;42008;52.934;5.884;2023-05-07T03:14:17;13.60;99.90
56137;DHT22;42008;52.934;5.884;2023-05-07T03:16:42;13.60;99.90
56137;DHT22;42008;52.934;5.884;2023-05-07T03:19:08;14.50;99.90
56137;DHT22;42008;52.934;5.884;2023-05-07T03:21:33;14.80;99.90
56137;DHT22;42008;52.934;5.884;2023-05-07T03:23:59;14.60;99.90
56137;DHT22;42008;52.934;5.884;2023-05-07T03:26:25;14.40;99.90
56137;DHT22;42008;52.934;5.884;2023-05-07T03:28:51;14.80;99.90
56137;DHT22;42008;52.934;5.884;2023-05-07T03:31:17;13.50;99.90
56137;DHT22;42008;52.934;5.884;2023-05-07T03:33:50;13.10;99.90
56137;DHT22;42008;52.934;5.884;2023-05-07T03:36:16;13.80;99.90
56137;DHT22;42008;52.934;5.884;2023-05-07T03:38:42;13.10;99.90
56137;DHT22;42008;52.934;5.884;2023-05-07T03:41:07;14.50;99.90
56137;DHT22;42008;52.934;5.884;2023-05-07T03:43:33;13.80;99.90
56137;DHT22;42008;52.934;5.884;2023-05-07T03:45:58;13.10;99.90
56137;DHT22;42008;52.934;5.884;2023-05-07T03:48:24;13.30;57.70
56137;DHT22;42008;52.934;5.884;2023-05-07T03:50:50;12.90;68.50
56137;DHT22;42008;52.934;5.884;2023-05-07T03:53:15;13.20;63.70
56137;DHT22;42008;52.934;5.884;2023-05-07T03:55:41;13.60;45.60
56137;DHT22;42008;52.934;5.884;2023-05-07T03:58:06;12.90;2.90
56137;DHT22;42008;52.934;5.884;2023-05-07T04:00:32;13.10;1.00
56137;DHT22;42008;52.934;5.884;2023-05-07T04:03:02;14.30;14.40
56137;DHT22;42008;52.934;5.884;2023-05-07T04:05:29;12.50;1.00
56137;DHT22;42008;52.934;5.884;2023-05-07T04:07:54;12.50;1.00
56137;DHT22;42008;52.934;5.884;2023-05-07T04:10:20;13.50;1.00
56137;DHT22;42008;52.934;5.884;2023-05-07T04:12:45;13.10;1.00
56137;DHT22;42008;52.934;5.884;2023-05-07T04:15:11;13.40;1.00
56137;DHT22;42008;52.934;5.884;2023-05-07T04:17:37;12.40;1.00
56137;DHT22;42008;52.934;5.884;2023-05-07T04:20:02;13.30;1.00
56137;DHT22;42008;52.934;5.884;2023-05-07T04:22:28;12.60;1.00
56137;DHT22;42008;52.934;5.884;2023-05-07T04:24:54;13.10;1.00
56137;DHT22;42008;52.934;5.884;2023-05-07T04:27:20;12.90;1.00
56137;DHT22;42008;52.934;5.884;2023-05-07T04:29:45;12.80;1.00
56137;DHT22;42008;52.934;5.884;2023-05-07T04:32:12;13.30;1.00
56137;DHT22;42008;52.934;5.884;2023-05-07T04:34:38;13.10;1.00
56137;DHT22;42008;52.934;5.884;2023-05-07T04:37:04;13.00;1.00
56137;DHT22;42008;52.934;5.884;2023-05-07T04:39:29;13.10;99.90
56137;DHT22;42008;52.934;5.884;2023-05-07T04:41:55;13.30;99.90
56137;DHT22;42008;52.934;5.884;2023-05-07T04:44:21;13.00;99.90
56137;DHT22;42008;52.934;5.884;2023-05-07T04:46:46;12.70;99.90
56137;DHT22;42008;52.934;5.884;2023-05-07T04:49:12;13.00;99.90
56137;DHT22;42008;52.934;5.884;2023-05-07T04:51:37;13.40;99.90
56137;DHT22;42008;52.934;5.884;2023-05-07T04:54:03;13.50;99.90
56137;DHT22;42008;52.934;5.884;2023-05-07T04:56:29;13.00;99.90
56137;DHT22;42008;52.934;5.884;2023-05-07T04:58:55;13.00;99.90
56137;DHT22;42008;52.934;5.884;2023-05-07T05:01:21;13.10;99.90
56137;DHT22;42008;52.934;5.884;2023-05-07T05:03:46;13.20;99.90
56137;DHT22;42008;52.934;5.884;2023-05-07T05:06:12;13.00;99.90
56137;DHT22;42008;52.934;5.884;2023-05-07T05:08:37;14.60;99.90
56137;DHT22;42008;52.934;5.884;2023-05-07T05:11:03;13.40;99.90
56137;DHT22;42008;52.934;5.884;2023-05-07T05:13:29;13.80;99.90
56137;DHT22;42008;52.934;5.884;2023-05-07T05:15:55;13.20;99.90
56137;DHT22;42008;52.934;5.884;2023-05-07T05:18:21;14.10;99.90
56137;DHT22;42008;52.934;5.884;2023-05-07T05:20:46;13.30;99.90
56137;DHT22;42008;52.934;5.884;2023-05-07T05:23:12;13.00;99.90
56137;DHT22;42008;52.934;5.884;2023-05-07T05:25:38;13.20;99.90
56137;DHT22;42008;52.934;5.884;2023-05-07T05:28:04;13.20;99.90
56137;DHT22;42008;52.934;5.884;2023-05-07T05:30:30;13.20;99.90
56137;DHT22;42008;52.934;5.884;2023-05-07T05:32:56;13.50;99.90
56137;DHT22;42008;52.934;5.884;2023-05-07T05:35:22;13.00;1.00
56137;DHT22;42008;52.934;5.884;2023-05-07T05:37:47;13.20;1.00
56137;DHT22;42008;52.934;5.884;2023-05-07T05:40:13;13.20;1.00
56137;DHT22;42008;52.934;5.884;2023-05-07T05:42:39;13.40;1.00
56137;DHT22;42008;52.934;5.884;2023-05-07T05:45:05;13.50;99.90
56137;DHT22;42008;52.934;5.884;2023-05-07T05:47:31;12.70;99.90
56137;DHT22;42008;52.934;5.884;2023-05-07T05:49:56;13.80;99.90
56137;DHT22;42008;52.934;5.884;2023-05-07T05:52:22;13.10;99.90
56137;DHT22;42008;52.934;5.884;2023-05-07T05:54:49;14.70;99.90
56137;DHT22;42008;52.934;5.884;2023-05-07T05:57:15;13.20;16.70
56137;DHT22;42008;52.934;5.884;2023-05-07T05:59:40;13.70;73.30
56137;DHT22;42008;52.934;5.884;2023-05-07T06:02:06;14.70;1.00
56137;DHT22;42008;52.934;5.884;2023-05-07T06:04:32;13.10;1.00
56137;DHT22;42008;52.934;5.884;2023-05-07T06:06:57;13.30;1.00
56137;DHT22;42008;52.934;5.884;2023-05-07T06:09:23;13.50;99.90
56137;DHT22;42008;52.934;5.884;2023-05-07T06:11:49;14.20;99.90
56137;DHT22;42008;52.934;5.884;2023-05-07T06:14:15;13.60;19.60
56137;DHT22;42008;52.934;5.884;2023-05-07T06:16:40;13.40;1.00
56137;DHT22;42008;52.934;5.884;2023-05-07T06:19:07;14.40;1.00
56137;DHT22;42008;52.934;5.884;2023-05-07T06:21:32;13.00;99.90
56137;DHT22;42008;52.934;5.884;2023-05-07T06:23:58;13.50;99.90
56137;DHT22;42008;52.934;5.884;2023-05-07T06:26:23;13.30;99.90
56137;DHT22;42008;52.934;5.884;2023-05-07T06:28:49;13.60;51.30
56137;DHT22;42008;52.934;5.884;2023-05-07T06:31:16;15.20;17.70
56137;DHT22;42008;52.934;5.884;2023-05-07T06:33:43;14.90;99.90
56137;DHT22;42008;52.934;5.884;2023-05-07T06:36:09;14.70;99.90
56137;DHT22;42008;52.934;5.884;2023-05-07T06:38:35;14.70;99.90
56137;DHT22;42008;52.934;5.884;2023-05-07T06:41:00;15.30;99.90
56137;DHT22;42008;52.934;5.884;2023-05-07T06:43:26;13.80;1.00
56137;DHT22;42008;52.934;5.884;2023-05-07T06:45:51;15.00;1.00
56137;DHT22;42008;52.934;5.884;2023-05-07T06:48:17;15.20;1.00
56137;DHT22;42008;52.934;5.884;2023-05-07T06:50:42;15.10;1.00
56137;DHT22;42008;52.934;5.884;2023-05-07T06:53:08;15.30;1.00
56137;DHT22;42008;52.934;5.884;2023-05-07T06:55:34;14.90;99.90
56137;DHT22;42008;52.934;5.884;2023-05-07T06:57:59;15.30;99.90
56137;DHT22;42008;52.934;5.884;2023-05-07T07:00:27;14.90;99.90
56137;DHT22;42008;52.934;5.884;2023-05-07T07:02:54;15.30;99.90
56137;DHT22;42008;52.934;5.884;2023-05-07T07:05:20;15.00;1.00
56137;DHT22;42008;52.934;5.884;2023-05-07T07:07:45;14.70;1.00
56137;DHT22;42008;52.934;5.884;2023-05-07T07:10:21;14.80;99.90
56137;DHT22;42008;52.934;5.884;2023-05-07T07:12:47;15.00;99.90
56137;DHT22;42008;52.934;5.884;2023-05-07T07:15:13;15.60;1.00
56137;DHT22;42008;52.934;5.884;2023-05-07T07:17:39;15.30;1.00
56137;DHT22;42008;52.934;5.884;2023-05-07T07:20:05;15.40;99.90
56137;DHT22;42008;52.934;5.884;2023-05-07T07:22:31;16.30;99.90
56137;DHT22;42008;52.934;5.884;2023-05-07T07:24:57;15.80;99.90
56137;DHT22;42008;52.934;5.884;2023-05-07T07:27:22;15.60;1.00
56137;DHT22;42008;52.934;5.884;2023-05-07T07:29:48;15.30;1.00
56137;DHT22;42008;52.934;5.884;2023-05-07T07:32:14;15.70;1.00
56137;DHT22;42008;52.934;5.884;2023-05-07T07:34:40;15.70;99.90
56137;DHT22;42008;52.934;5.884;2023-05-07T07:37:05;15.80;99.90
56137;DHT22;42008;52.934;5.884;2023-05-07T07:39:35;15.80;99.90
56137;DHT22;42008;52.934;5.884;2023-05-07T07:42:03;15.80;99.90
56137;DHT22;42008;52.934;5.884;2023-05-07T07:44:28;16.60;1.00
56137;DHT22;42008;52.934;5.884;2023-05-07T07:46:54;17.30;74.00
56137;DHT22;42008;52.934;5.884;2023-05-07T07:49:19;16.80;1.00
56137;DHT22;42008;52.934;5.884;2023-05-07T07:51:45;17.00;1.00
56137;DHT22;42008;52.934;5.884;2023-05-07T07:54:11;16.50;1.00
56137;DHT22;42008;52.934;5.884;2023-05-07T07:56:36;17.60;99.90
56137;DHT22;42008;52.934;5.884;2023-05-07T07:59:02;17.50;99.90
56137;DHT22;42008;52.934;5.884;2023-05-07T08:01:29;17.30;99.90
56137;DHT22;42008;52.934;5.884;2023-05-07T08:03:55;16.30;99.90
56137;DHT22;42008;52.934;5.884;2023-05-07T08:06:23;16.30;99.90
56137;DHT22;42008;52.934;5.884;2023-05-07T08:08:48;17.60;99.90
56137;DHT22;42008;52.934;5.884;2023-05-07T08:11:14;17.50;99.90
56137;DHT22;42008;52.934;5.884;2023-05-07T08:13:40;17.20;99.90
56137;DHT22;42008;52.934;5.884;2023-05-07T08:16:05;17.70;1.00
56137;DHT22;42008;52.934;5.884;2023-05-07T08:18:31;17.10;99.90
56137;DHT22;42008;52.934;5.884;2023-05-07T08:20:57;17.70;99.90
56137;DHT22;42008;52.934;5.884;2023-05-07T08:23:22;18.20;99.90
56137;DHT22;42008;52.934;5.884;2023-05-07T08:25:49;18.10;30.90
56137;DHT22;42008;52.934;5.884;2023-05-07T08:28:15;17.70;1.00
56137;DHT22;42008;52.934;5.884;2023-05-07T08:30:40;17.80;1.00
56137;DHT22;42008;52.934;5.884;2023-05-07T08:33:06;17.30;1.00
56137;DHT22;42008;52.934;5.884;2023-05-07T08:35:31;17.70;37.80
56137;DHT22;42008;52.934;5.884;2023-05-07T08:37:57;17.50;44.70
56137;DHT22;42008;52.934;5.884;2023-05-07T08:40:25;18.10;95.30
56137;DHT22;42008;52.934;5.884;2023-05-07T08:42:53;17.70;50.50
56137;DHT22;42008;52.934;5.884;2023-05-07T08:45:19;17.40;12.50
56137;DHT22;42008;52.934;5.884;2023-05-07T08:47:58;18.10;19.80
56137;DHT22;42008;52.934;5.884;2023-05-07T08:50:25;17.70;1.00
56137;DHT22;42008;52.934;5.884;2023-05-07T08:52:50;17.90;1.00
56137;DHT22;42008;52.934;5.884;2023-05-07T08:55:16;17.80;1.00
56137;DHT22;42008;52.934;5.884;2023-05-07T08:57:42;18.50;1.00
56137;DHT22;42008;52.934;5.884;2023-05-07T09:00:08;17.90;1.00
56137;DHT22;42008;52.934;5.884;2023-05-07T09:02:35;17.70;99.90
56137;DHT22;42008;52.934;5.884;2023-05-07T09:05:02;18.20;1.00
56137;DHT22;42008;52.934;5.884;2023-05-07T09:07:27;18.20;99.90
56137;DHT22;42008;52.934;5.884;2023-05-07T09:09:53;18.50;1.00
56137;DHT22;42008;52.934;5.884;2023-05-07T09:12:21;18.70;99.90
56137;DHT22;42008;52.934;5.884;2023-05-07T09:14:46;18.40;99.90
56137;DHT22;42008;52.934;5.884;2023-05-07T09:17:13;20.20;99.90
56137;DHT22;42008;52.934;5.884;2023-05-07T09:19:38;19.90;99.90
56137;DHT22;42008;52.934;5.884;2023-05-07T09:22:05;18.70;99.90
56137;DHT22;42008;52.934;5.884;2023-05-07T09:24:32;18.30;99.90
56137;DHT22;42008;52.934;5.884;2023-05-07T09:27:04;19.50;99.90
56137;DHT22;42008;52.934;5.884;2023-05-07T09:29:30;18.60;99.90
56137;DHT22;42008;52.934;5.884;2023-05-07T09:32:10;20.00;99.90
56137;DHT22;42008;52.934;5.884;2023-05-07T09:34:35;18.50;99.90
56137;DHT22;42008;52.934;5.884;2023-05-07T09:37:05;18.50;99.90
56137;DHT22;42008;52.934;5.884;2023-05-07T09:39:48;20.00;99.90
56137;DHT22;42008;52.934;5.884;2023-05-07T09:42:14;19.70;99.90
56137;DHT22;42008;52.934;5.884;2023-05-07T09:44:40;18.50;99.90
56137;DHT22;42008;52.934;5.884;2023-05-07T09:47:07;18.40;99.90
56137;DHT22;42008;52.934;5.884;2023-05-07T09:49:37;20.10;99.90
56137;DHT22;42008;52.934;5.884;2023-05-07T09:52:05;20.60;99.90
56137;DHT22;42008;52.934;5.884;2023-05-07T09:54:35;20.30;99.90
56137;DHT22;42008;52.934;5.884;2023-05-07T09:57:04;20.00;99.90
56137;DHT22;42008;52.934;5.884;2023-05-07T09:59:32;20.00;99.90
56137;DHT22;42008;52.934;5.884;2023-05-07T10:01:59;18.90;99.90
56137;DHT22;42008;52.934;5.884;2023-05-07T10:04:26;20.10;99.90
56137;DHT22;42008;52.934;5.884;2023-05-07T10:06:52;20.10;99.90
56137;DHT22;42008;52.934;5.884;2023-05-07T10:09:19;20.20;99.90
56137;DHT22;42008;52.934;5.884;2023-05-07T10:11:45;19.90;99.90
56137;DHT22;42008;52.934;5.884;2023-05-07T10:14:14;20.40;99.90
56137;DHT22;42008;52.934;5.884;2023-05-07T10:16:40;20.00;99.90
56137;DHT22;42008;52.934;5.884;2023-05-07T10:19:08;20.10;99.90
56137;DHT22;42008;52.934;5.884;2023-05-07T10:21:40;20.50;99.90
56137;DHT22;42008;52.934;5.884;2023-05-07T10:24:21;20.50;99.90
56137;DHT22;42008;52.934;5.884;2023-05-07T10:26:50;20.10;99.90
56137;DHT22;42008;52.934;5.884;2023-05-07T10:32:35;20.30;99.90
56137;DHT22;42008;52.934;5.884;2023-05-07T10:35:06;20.90;99.90
56137;DHT22;42008;52.934;5.884;2023-05-07T10:37:34;20.40;99.90
56137;DHT22;42008;52.934;5.884;2023-05-07T10:40:01;20.70;99.90
56137;DHT22;42008;52.934;5.884;2023-05-07T10:42:26;20.90;99.90
56137;DHT22;42008;52.934;5.884;2023-05-07T10:44:52;21.00;99.90
56137;DHT22;42008;52.934;5.884;2023-05-07T10:47:17;21.10;99.90
56137;DHT22;42008;52.934;5.884;2023-05-07T10:52:23;21.40;99.90
56137;DHT22;42008;52.934;5.884;2023-05-07T10:57:42;22.00;99.90
56137;DHT22;42008;52.934;5.884;2023-05-07T11:05:32;21.30;99.90
56137;DHT22;42008;52.934;5.884;2023-05-07T11:08:02;22.80;99.90
56137;DHT22;42008;52.934;5.884;2023-05-07T11:13:16;22.80;99.90
56137;DHT22;42008;52.934;5.884;2023-05-07T11:15:45;23.30;99.90
56137;DHT22;42008;52.934;5.884;2023-05-07T11:18:15;22.20;99.90
56137;DHT22;42008;52.934;5.884;2023-05-07T11:20:49;23.20;99.90
56137;DHT22;42008;52.934;5.884;2023-05-07T11:26:07;23.50;1.00
56137;DHT22;42008;52.934;5.884;2023-05-07T11:28:37;23.80;1.00
56137;DHT22;42008;52.934;5.884;2023-05-07T11:31:04;23.90;1.00
56137;DHT22;42008;52.934;5.884;2023-05-07T11:33:33;23.40;1.00
56137;DHT22;42008;52.934;5.884;2023-05-07T11:36:00;24.30;1.00
56137;DHT22;42008;52.934;5.884;2023-05-07T11:38:25;24.20;1.00
56137;DHT22;42008;52.934;5.884;2023-05-07T11:40:58;23.40;1.00
56137;DHT22;42008;52.934;5.884;2023-05-07T11:43:26;23.80;1.00
56137;DHT22;42008;52.934;5.884;2023-05-07T11:45:52;24.00;1.00
56137;DHT22;42008;52.934;5.884;2023-05-07T11:48:18;24.50;99.90
56137;DHT22;42008;52.934;5.884;2023-05-07T11:50:50;24.00;99.90
56137;DHT22;42008;52.934;5.884;2023-05-07T11:53:17;24.30;99.90
56137;DHT22;42008;52.934;5.884;2023-05-07T11:55:43;23.90;99.90
56137;DHT22;42008;52.934;5.884;2023-05-07T11:58:11;25.00;99.90
56137;DHT22;42008;52.934;5.884;2023-05-07T12:00:37;25.80;99.90
56137;DHT22;42008;52.934;5.884;2023-05-07T12:03:06;24.60;99.90
56137;DHT22;42008;52.934;5.884;2023-05-07T12:05:31;23.90;99.90
56137;DHT22;42008;52.934;5.884;2023-05-07T12:07:57;24.10;99.90
56137;DHT22;42008;52.934;5.884;2023-05-07T12:10:23;23.70;99.90
56137;DHT22;42008;52.934;5.884;2023-05-07T12:12:50;24.20;99.90
56137;DHT22;42008;52.934;5.884;2023-05-07T12:15:22;24.10;99.90
56137;DHT22;42008;52.934;5.884;2023-05-07T12:17:48;23.90;99.90
56137;DHT22;42008;52.934;5.884;2023-05-07T12:20:14;24.00;99.90
56137;DHT22;42008;52.934;5.884;2023-05-07T12:22:40;23.90;99.90
56137;DHT22;42008;52.934;5.884;2023-05-07T12:25:06;24.70;99.90
56137;DHT22;42008;52.934;5.884;2023-05-07T12:27:32;23.90;99.90
56137;DHT22;42008;52.934;5.884;2023-05-07T12:30:01;26.10;99.90
56137;DHT22;42008;52.934;5.884;2023-05-07T12:32:27;24.20;99.90
56137;DHT22;42008;52.934;5.884;2023-05-07T12:34:53;24.30;99.90
56137;DHT22;42008;52.934;5.884;2023-05-07T12:37:23;24.90;99.90
56137;DHT22;42008;52.934;5.884;2023-05-07T12:39:50;26.30;99.90
56137;DHT22;42008;52.934;5.884;2023-05-07T12:42:33;25.30;99.90
56137;DHT22;42008;52.934;5.884;2023-05-07T12:44:58;25.90;99.90
56137;DHT22;42008;52.934;5.884;2023-05-07T12:47:24;26.80;99.90
56137;DHT22;42008;52.934;5.884;2023-05-07T12:49:50;26.60;99.90
56137;DHT22;42008;52.934;5.884;2023-05-07T12:52:16;27.10;99.90
56137;DHT22;42008;52.934;5.884;2023-05-07T12:54:41;26.30;99.90
56137;DHT22;42008;52.934;5.884;2023-05-07T12:57:08;26.80;99.90
56137;DHT22;42008;52.934;5.884;2023-05-07T12:59:39;24.90;99.90
56137;DHT22;42008;52.934;5.884;2023-05-07T13:02:05;26.00;99.90
56137;DHT22;42008;52.934;5.884;2023-05-07T13:04:32;26.80;99.90
56137;DHT22;42008;52.934;5.884;2023-05-07T13:06:58;26.80;99.90
56137;DHT22;42008;52.934;5.884;2023-05-07T13:09:24;27.70;99.90
56137;DHT22;42008;52.934;5.884;2023-05-07T13:11:49;27.20;99.90
56137;DHT22;42008;52.934;5.884;2023-05-07T13:14:15;27.50;99.90
56137;DHT22;42008;52.934;5.884;2023-05-07T13:16:41;27.40;99.90
56137;DHT22;42008;52.934;5.884;2023-05-07T13:19:06;27.30;99.90
56137;DHT22;42008;52.934;5.884;2023-05-07T13:21:32;28.00;99.90
56137;DHT22;42008;52.934;5.884;2023-05-07T13:23:58;28.00;99.90
56137;DHT22;42008;52.934;5.884;2023-05-07T13:26:24;27.80;99.90
56137;DHT22;42008;52.934;5.884;2023-05-07T13:28:50;27.90;99.90
56137;DHT22;42008;52.934;5.884;2023-05-07T13:31:17;28.70;99.90
56137;DHT22;42008;52.934;5.884;2023-05-07T13:33:43;28.00;99.90
56137;DHT22;42008;52.934;5.884;2023-05-07T13:36:09;27.80;99.90
56137;DHT22;42008;52.934;5.884;2023-05-07T13:38:34;28.00;99.90
56137;DHT22;42008;52.934;5.884;2023-05-07T13:41:00;28.30;99.90
56137;DHT22;42008;52.934;5.884;2023-05-07T13:43:26;28.50;99.90
56137;DHT22;42008;52.934;5.884;2023-05-07T13:45:51;28.90;99.90
56137;DHT22;42008;52.934;5.884;2023-05-07T13:48:17;29.10;99.90
56137;DHT22;42008;52.934;5.884;2023-05-07T13:50:42;30.90;99.90
56137;DHT22;42008;52.934;5.884;2023-05-07T13:53:08;29.10;99.90
56137;DHT22;42008;52.934;5.884;2023-05-07T13:55:34;30.50;99.90
56137;DHT22;42008;52.934;5.884;2023-05-07T13:58:01;31.00;99.90
56137;DHT22;42008;52.934;5.884;2023-05-07T14:00:28;29.40;99.90
56137;DHT22;42008;52.934;5.884;2023-05-07T14:02:55;29.30;99.90
56137;DHT22;42008;52.934;5.884;2023-05-07T14:05:21;29.80;99.90
56137;DHT22;42008;52.934;5.884;2023-05-07T14:07:54;32.10;99.90
56137;DHT22;42008;52.934;5.884;2023-05-07T14:10:21;30.90;99.90
56137;DHT22;42008;52.934;5.884;2023-05-07T14:12:47;30.80;99.90
56137;DHT22;42008;52.934;5.884;2023-05-07T14:15:13;29.00;91.40
56137;DHT22;42008;52.934;5.884;2023-05-07T14:17:39;29.00;33.00
56137;DHT22;42008;52.934;5.884;2023-05-07T14:20:05;28.40;8.00
56137;DHT22;42008;52.934;5.884;2023-05-07T14:22:33;28.20;1.00
56137;DHT22;42008;52.934;5.884;2023-05-07T14:24:59;28.40;1.00
56137;DHT22;42008;52.934;5.884;2023-05-07T14:27:24;28.00;1.00
56137;DHT22;42008;52.934;5.884;2023-05-07T14:29:50;28.00;1.00
56137;DHT22;42008;52.934;5.884;2023-05-07T14:32:17;28.20;1.00
56137;DHT22;42008;52.934;5.884;2023-05-07T14:34:43;27.80;1.00
56137;DHT22;42008;52.934;5.884;2023-05-07T14:37:09;29.80;1.00
56137;DHT22;42008;52.934;5.884;2023-05-07T14:39:35;30.90;1.00
56137;DHT22;42008;52.934;5.884;2023-05-07T14:42:01;31.10;1.00
56137;DHT22;42008;52.934;5.884;2023-05-07T14:44:27;31.60;1.00
56137;DHT22;42008;52.934;5.884;2023-05-07T14:46:52;31.60;1.00
56137;DHT22;42008;52.934;5.884;2023-05-07T14:49:18;31.70;1.00
56137;DHT22;42008;52.934;5.884;2023-05-07T14:51:44;33.20;1.00
56137;DHT22;42008;52.934;5.884;2023-05-07T14:54:11;33.40;1.00
56137;DHT22;42008;52.934;5.884;2023-05-07T14:56:36;33.30;1.00
56137;DHT22;42008;52.934;5.884;2023-05-07T14:59:02;34.10;1.00
56137;DHT22;42008;52.934;5.884;2023-05-07T15:01:28;33.70;1.00
56137;DHT22;42008;52.934;5.884;2023-05-07T15:03:54;33.30;1.00
56137;DHT22;42008;52.934;5.884;2023-05-07T15:06:21;33.70;1.00
56137;DHT22;42008;52.934;5.884;2023-05-07T15:08:46;34.40;1.00
56137;DHT22;42008;52.934;5.884;2023-05-07T15:11:12;33.40;1.00
56137;DHT22;42008;52.934;5.884;2023-05-07T15:13:38;33.70;1.00
56137;DHT22;42008;52.934;5.884;2023-05-07T15:16:03;35.40;1.00
56137;DHT22;42008;52.934;5.884;2023-05-07T15:18:29;34.90;99.90
56137;DHT22;42008;52.934;5.884;2023-05-07T15:20:55;33.80;99.90
56137;DHT22;42008;52.934;5.884;2023-05-07T15:23:22;34.90;99.90
56137;DHT22;42008;52.934;5.884;2023-05-07T15:25:47;33.40;99.90
56137;DHT22;42008;52.934;5.884;2023-05-07T15:28:13;32.10;99.90
56137;DHT22;42008;52.934;5.884;2023-05-07T15:30:39;32.30;99.90
56137;DHT22;42008;52.934;5.884;2023-05-07T15:33:04;33.10;99.90
56137;DHT22;42008;52.934;5.884;2023-05-07T15:35:30;33.10;99.90
56137;DHT22;42008;52.934;5.884;2023-05-07T15:37:56;33.10;99.90
56137;DHT22;42008;52.934;5.884;2023-05-07T15:40:22;33.20;99.90
56137;DHT22;42008;52.934;5.884;2023-05-07T15:42:48;33.10;99.90
56137;DHT22;42008;52.934;5.884;2023-05-07T15:45:14;33.10;99.90
56137;DHT22;42008;52.934;5.884;2023-05-07T15:47:39;33.50;99.90
56137;DHT22;42008;52.934;5.884;2023-05-07T15:50:06;33.50;99.90